createdAt,value
2022-09-02T00:01:25.021Z,14.90
2022-09-02T00:03:55.145Z,14.90
2022-09-02T00:06:22.541Z,14.90
2022-09-02T00:08:49.959Z,14.90
2022-09-02T00:11:19.855Z,14.80
2022-09-02T00:13:47.907Z,14.80
2022-09-02T00:16:15.489Z,14.80
2022-09-02T00:18:45.750Z,14.80
2022-09-02T00:21:14.339Z,14.70
2022-09-02T00:23:42.193Z,14.70
2022-09-02T00:26:09.545Z,14.70
2022-09-02T00:28:36.961Z,14.70
2022-09-02T00:31:04.530Z,14.70
2022-09-02T00:33:32.192Z,14.60
2022-09-02T00:36:01.080Z,14.60
2022-09-02T00:38:28.884Z,14.60
2022-09-02T00:40:56.328Z,14.60
2022-09-02T00:43:25.950Z,14.60
2022-09-02T00:45:54.933Z,14.60
2022-09-02T00:48:22.435Z,14.50
2022-09-02T00:50:50.947Z,14.50
2022-09-02T00:53:18.348Z,14.50
2022-09-02T00:55:48.600Z,14.50
2022-09-02T00:58:30.416Z,14.50
2022-09-02T01:00:58.254Z,14.50
2022-09-02T01:03:27.280Z,14.50
2022-09-02T01:05:55.187Z,14.50
2022-09-02T01:08:28.934Z,14.40
2022-09-02T01:10:56.768Z,14.40
2022-09-02T01:13:29.151Z,14.40
2022-09-02T01:16:01.532Z,14.40
2022-09-02T01:18:29.794Z,14.30
2022-09-02T01:20:58.451Z,14.40
2022-09-02T01:23:26.106Z,14.30
2022-09-02T01:25:55.607Z,14.30
2022-09-02T01:28:24.283Z,14.30
2022-09-02T01:30:53.811Z,14.30
2022-09-02T01:33:22.852Z,14.30
2022-09-02T01:35:52.691Z,14.30
2022-09-02T01:38:21.034Z,14.30
2022-09-02T01:40:48.608Z,14.30
2022-09-02T01:43:18.452Z,14.30
2022-09-02T01:45:49.434Z,14.30
2022-09-02T01:48:21.433Z,14.30
2022-09-02T01:50:55.486Z,14.20
2022-09-02T01:53:23.768Z,14.20
2022-09-02T01:55:52.962Z,14.20
2022-09-02T01:58:20.418Z,14.20
2022-09-02T02:00:47.972Z,14.20
2022-09-02T02:03:15.813Z,14.20
2022-09-02T02:05:43.529Z,14.20
2022-09-02T02:08:13.957Z,14.10
2022-09-02T02:10:42.883Z,14.10
2022-09-02T02:13:12.265Z,14.10
2022-09-02T02:15:41.564Z,14.10
2022-09-02T02:18:09.518Z,14.10
2022-09-02T02:20:37.017Z,14.10
2022-09-02T02:23:05.741Z,14.00
2022-09-02T02:25:33.214Z,14.00
2022-09-02T02:28:00.601Z,14.00
2022-09-02T02:30:30.769Z,14.00
2022-09-02T02:32:59.086Z,13.90
2022-09-02T02:35:26.479Z,13.90
2022-09-02T02:37:54.003Z,13.90
2022-09-02T02:40:22.932Z,13.90
2022-09-02T02:42:53.261Z,13.90
2022-09-02T02:45:22.935Z,13.80
2022-09-02T02:47:51.279Z,13.80
2022-09-02T02:50:20.456Z,13.80
2022-09-02T02:52:48.896Z,13.90
2022-09-02T02:55:17.563Z,13.80
2022-09-02T02:57:45.150Z,13.90
2022-09-02T03:00:18.673Z,13.90
2022-09-02T03:02:48.300Z,13.80
2022-09-02T03:05:18.399Z,13.80
2022-09-02T03:07:47.300Z,13.80
2022-09-02T03:10:16.288Z,13.80
2022-09-02T03:12:47.766Z,13.80
2022-09-02T03:15:18.356Z,13.80
2022-09-02T03:17:47.154Z,13.80
2022-09-02T03:20:15.868Z,13.70
2022-09-02T03:22:47.826Z,13.70
2022-09-02T03:25:17.642Z,13.70
2022-09-02T03:27:46.068Z,13.70
2022-09-02T03:30:20.267Z,13.60
2022-09-02T03:32:47.711Z,13.60
2022-09-02T03:35:17.299Z,13.50
2022-09-02T03:37:45.053Z,13.50
2022-09-02T03:40:18.520Z,13.50
2022-09-02T03:42:48.290Z,13.50
2022-09-02T03:45:16.445Z,13.50
2022-09-02T03:47:51.070Z,13.50
2022-09-02T03:50:22.173Z,13.50
2022-09-02T03:52:49.758Z,13.40
2022-09-02T03:55:17.355Z,13.50
2022-09-02T03:57:45.583Z,13.40
2022-09-02T04:00:14.498Z,13.40
2022-09-02T04:02:45.035Z,13.50
2022-09-02T04:05:18.434Z,13.40
2022-09-02T04:07:47.144Z,13.40
2022-09-02T04:10:15.332Z,13.40
2022-09-02T04:12:42.901Z,13.40
2022-09-02T04:15:12.056Z,13.40
2022-09-02T04:17:41.219Z,13.40
2022-09-02T04:20:11.882Z,13.30
2022-09-02T04:22:39.514Z,13.40
2022-09-02T04:25:07.555Z,13.30
2022-09-02T04:27:35.068Z,13.30
2022-09-02T04:30:02.608Z,13.30
2022-09-02T04:32:35.816Z,13.30
2022-09-02T04:35:08.311Z,13.30
2022-09-02T04:37:36.747Z,13.30
2022-09-02T04:40:05.062Z,13.30
2022-09-02T04:42:34.159Z,13.20
2022-09-02T04:45:02.046Z,13.30
2022-09-02T04:47:30.807Z,13.30
2022-09-02T04:49:58.478Z,13.20
2022-09-02T04:52:26.258Z,13.20
2022-09-02T04:54:54.055Z,13.20
2022-09-02T04:57:21.617Z,13.30
2022-09-02T04:59:50.412Z,13.30
2022-09-02T05:02:20.271Z,13.30
2022-09-02T05:04:48.436Z,13.30
2022-09-02T05:07:22.919Z,13.30
2022-09-02T05:09:50.464Z,13.30
2022-09-02T05:12:18.307Z,13.30
2022-09-02T05:14:52.462Z,13.30
2022-09-02T05:17:22.950Z,13.40
2022-09-02T05:19:51.314Z,13.40
2022-09-02T05:22:19.749Z,13.40
2022-09-02T05:24:47.392Z,13.40
2022-09-02T05:27:16.335Z,13.40
2022-09-02T05:29:45.717Z,13.30
2022-09-02T05:32:15.807Z,13.40
2022-09-02T05:34:45.614Z,13.40
2022-09-02T05:37:12.945Z,13.40
2022-09-02T05:39:40.345Z,13.40
2022-09-02T05:42:08.468Z,13.40
2022-09-02T05:44:36.757Z,13.50
2022-09-02T05:47:05.667Z,13.50
2022-09-02T05:49:33.403Z,13.60
2022-09-02T05:52:10.106Z,13.60
2022-09-02T05:54:41.229Z,13.70
2022-09-02T05:57:13.586Z,13.70
2022-09-02T05:59:47.495Z,13.70
2022-09-02T06:02:18.974Z,13.80
2022-09-02T06:04:48.239Z,13.70
2022-09-02T06:07:17.075Z,13.80
2022-09-02T06:09:46.996Z,13.90
2022-09-02T06:12:15.197Z,13.90
2022-09-02T06:14:42.922Z,13.90
2022-09-02T06:17:11.175Z,14.00
2022-09-02T06:19:45.598Z,14.10
2022-09-02T06:22:13.806Z,14.10
2022-09-02T06:24:43.060Z,14.20
2022-09-02T06:27:17.052Z,14.20
2022-09-02T06:29:47.878Z,14.30
2022-09-02T06:32:20.382Z,14.30
2022-09-02T06:34:49.511Z,14.40
2022-09-02T06:37:16.934Z,14.40
2022-09-02T06:39:46.240Z,14.40
2022-09-02T06:42:19.390Z,14.50
2022-09-02T06:45:07.719Z,14.50
2022-09-02T06:47:36.308Z,14.60
2022-09-02T06:50:04.051Z,14.70
2022-09-02T06:52:31.937Z,14.80
2022-09-02T06:55:01.278Z,14.90
2022-09-02T06:57:31.431Z,14.90
2022-09-02T07:00:08.406Z,15.00
2022-09-02T07:02:37.582Z,15.10
2022-09-02T07:05:15.117Z,15.10
2022-09-02T07:07:46.006Z,15.20
2022-09-02T07:10:15.342Z,15.20
2022-09-02T07:12:47.551Z,15.30
2022-09-02T07:15:17.387Z,15.40
2022-09-02T07:17:45.006Z,15.50
2022-09-02T07:20:22.977Z,15.50
2022-09-02T07:22:56.486Z,15.60
2022-09-02T07:25:25.970Z,15.70
2022-09-02T07:27:54.628Z,15.70
2022-09-02T07:30:23.152Z,15.80
2022-09-02T07:32:56.987Z,15.90
2022-09-02T07:35:26.836Z,16.00
2022-09-02T07:37:54.921Z,16.00
2022-09-02T07:40:23.639Z,16.10
2022-09-02T07:42:51.687Z,16.20
2022-09-02T07:45:20.438Z,16.30
2022-09-02T07:47:49.123Z,16.30
2022-09-02T07:50:20.335Z,16.40
2022-09-02T07:52:54.637Z,16.40
2022-09-02T07:55:23.195Z,16.50
2022-09-02T07:57:50.743Z,16.60
2022-09-02T08:00:20.243Z,16.60
2022-09-02T08:02:50.668Z,16.80
2022-09-02T08:05:23.627Z,16.90
2022-09-02T08:07:50.943Z,17.00
2022-09-02T08:10:20.256Z,17.10
2022-09-02T08:12:47.931Z,17.20
2022-09-02T08:15:16.324Z,17.30
2022-09-02T08:17:44.792Z,17.40
2022-09-02T08:20:12.812Z,17.50
2022-09-02T08:22:40.526Z,17.60
2022-09-02T08:25:08.284Z,17.60
2022-09-02T08:27:36.018Z,17.70
2022-09-02T08:30:05.107Z,17.80
2022-09-02T08:32:32.895Z,17.80
2022-09-02T08:35:02.893Z,17.90
2022-09-02T08:37:31.451Z,18.00
2022-09-02T08:39:59.438Z,18.20
2022-09-02T08:42:47.263Z,18.30
2022-09-02T08:45:40.982Z,18.40
2022-09-02T08:48:11.375Z,18.50
2022-09-02T08:50:40.210Z,18.60
2022-09-02T08:53:37.696Z,18.60
2022-09-02T08:56:05.899Z,18.80
2022-09-02T08:58:39.570Z,18.90
2022-09-02T09:01:12.840Z,18.90
2022-09-02T09:03:54.195Z,19.00
2022-09-02T09:06:25.888Z,19.10
2022-09-02T09:09:30.662Z,19.20
2022-09-02T09:12:05.651Z,19.20
2022-09-02T09:15:02.688Z,19.20
2022-09-02T09:17:52.925Z,19.20
2022-09-02T09:20:39.726Z,19.30
2022-09-02T09:23:40.087Z,19.40
2022-09-02T09:26:12.142Z,19.50
2022-09-02T09:28:44.452Z,19.60
2022-09-02T09:31:18.722Z,19.60
2022-09-02T09:34:00.439Z,19.70
2022-09-02T09:36:56.028Z,19.80
2022-09-02T09:39:32.717Z,19.80
2022-09-02T09:42:04.168Z,19.80
2022-09-02T09:44:48.130Z,19.80
2022-09-02T09:47:20.544Z,19.80
2022-09-02T09:49:52.081Z,19.90
2022-09-02T09:52:24.621Z,20.00
2022-09-02T09:55:24.868Z,20.00
2022-09-02T09:57:54.083Z,20.00
2022-09-02T10:00:21.814Z,20.10
2022-09-02T10:02:53.534Z,20.10
2022-09-02T10:05:27.075Z,20.20
2022-09-02T10:07:56.655Z,20.20
2022-09-02T10:10:27.363Z,20.20
2022-09-02T10:12:57.008Z,20.20
2022-09-02T10:15:30.070Z,20.20
2022-09-02T10:18:14.063Z,20.20
2022-09-02T10:21:15.377Z,20.30
2022-09-02T10:23:49.128Z,20.40
2022-09-02T10:26:33.589Z,20.50
2022-09-02T10:29:31.847Z,20.60
2022-09-02T10:32:43.609Z,20.80
2022-09-02T10:35:38.533Z,20.90
2022-09-02T10:38:33.226Z,20.80
2022-09-02T10:41:18.692Z,20.90
2022-09-02T10:44:13.734Z,20.90
2022-09-02T10:47:14.551Z,20.90
2022-09-02T10:49:51.014Z,20.90
2022-09-02T10:52:32.275Z,20.90
2022-09-02T10:55:14.297Z,21.00
2022-09-02T10:58:06.334Z,21.00
2022-09-02T11:00:36.367Z,21.00
2022-09-02T11:03:13.918Z,21.10
2022-09-02T11:05:52.956Z,21.10
2022-09-02T11:08:50.801Z,21.10
2022-09-02T11:11:25.252Z,21.10
2022-09-02T11:13:52.498Z,21.10
2022-09-02T11:16:41.906Z,21.20
2022-09-02T11:19:22.377Z,21.20
2022-09-02T11:22:15.503Z,21.20
2022-09-02T11:24:49.132Z,21.20
2022-09-02T11:27:44.617Z,21.20
2022-09-02T11:30:21.442Z,21.30
2022-09-02T11:33:50.486Z,21.40
2022-09-02T11:36:18.119Z,21.40
2022-09-02T11:39:00.318Z,21.50
2022-09-02T11:41:36.635Z,21.50
2022-09-02T11:44:29.481Z,21.50
2022-09-02T11:47:29.877Z,21.60
2022-09-02T11:50:16.306Z,21.60
2022-09-02T11:53:17.387Z,21.60
2022-09-02T11:55:56.376Z,21.60
2022-09-02T11:58:40.457Z,21.70
2022-09-02T12:01:24.890Z,21.70
2022-09-02T12:04:34.491Z,21.80
2022-09-02T12:07:09.387Z,21.90
2022-09-02T12:12:36.065Z,22.00
2022-09-02T12:15:04.795Z,22.00
2022-09-02T12:17:38.093Z,22.00
2022-09-02T12:20:38.937Z,22.00
2022-09-02T12:23:07.203Z,22.00
2022-09-02T12:25:42.378Z,21.90
2022-09-02T12:28:25.647Z,21.90
2022-09-02T12:30:56.532Z,22.00
2022-09-02T12:33:36.631Z,21.90
2022-09-02T12:36:05.161Z,22.00
2022-09-02T12:38:41.904Z,22.00
2022-09-02T12:41:13.459Z,21.90
2022-09-02T12:43:51.342Z,21.90
2022-09-02T12:46:24.943Z,21.90
2022-09-02T12:49:11.977Z,21.90
2022-09-02T12:51:57.246Z,21.90
2022-09-02T12:54:39.685Z,21.90
2022-09-02T12:57:07.528Z,22.00
2022-09-02T12:59:37.019Z,22.00
2022-09-02T13:02:28.205Z,22.10
2022-09-02T13:05:24.571Z,22.10
2022-09-02T13:08:06.341Z,22.10
2022-09-02T13:11:11.744Z,22.10
2022-09-02T13:13:51.198Z,22.10
2022-09-02T13:16:29.111Z,22.10
2022-09-02T13:18:56.533Z,22.10
2022-09-02T13:21:48.774Z,22.10
2022-09-02T13:24:35.780Z,22.10
2022-09-02T13:27:24.716Z,22.00
2022-09-02T13:30:22.292Z,22.10
2022-09-02T13:32:57.130Z,22.20
2022-09-02T13:35:26.101Z,22.20
2022-09-02T13:37:59.811Z,22.20
2022-09-02T13:40:29.823Z,22.20
2022-09-02T13:42:58.506Z,22.20
2022-09-02T13:45:26.821Z,22.20
2022-09-02T13:48:01.184Z,22.20
2022-09-02T13:50:29.884Z,22.20
2022-09-02T13:55:52.040Z,22.30
2022-09-02T13:58:34.675Z,22.20
2022-09-02T14:01:28.289Z,22.30
2022-09-02T14:04:00.437Z,22.30
2022-09-02T14:06:36.694Z,22.30
2022-09-02T14:09:06.728Z,22.40
2022-09-02T14:11:42.972Z,22.40
2022-09-02T14:14:17.642Z,22.30
2022-09-02T14:16:45.085Z,22.30
2022-09-02T14:19:16.790Z,22.30
2022-09-02T14:21:48.826Z,22.30
2022-09-02T14:24:19.738Z,22.30
2022-09-02T14:26:47.510Z,22.30
2022-09-02T14:29:16.538Z,22.30
2022-09-02T14:31:44.252Z,22.30
2022-09-02T14:34:34.736Z,22.40
2022-09-02T14:37:14.595Z,22.40
2022-09-02T14:39:52.703Z,22.40
2022-09-02T14:42:20.165Z,22.30
2022-09-02T14:44:47.622Z,22.40
2022-09-02T14:47:15.802Z,22.30
2022-09-02T14:49:52.535Z,22.30
2022-09-02T14:52:25.618Z,22.40
2022-09-02T14:54:54.199Z,22.30
2022-09-02T14:57:47.723Z,22.30
2022-09-02T15:00:17.810Z,22.30
2022-09-02T15:02:47.716Z,22.30
2022-09-02T15:05:15.144Z,22.30
2022-09-02T15:07:42.618Z,22.30
2022-09-02T15:10:10.185Z,22.40
2022-09-02T15:12:48.242Z,22.50
2022-09-02T15:15:15.870Z,22.50
2022-09-02T15:17:43.594Z,22.50
2022-09-02T15:20:11.282Z,22.50
2022-09-02T15:22:38.714Z,22.40
2022-09-02T15:25:10.187Z,22.40
2022-09-02T15:27:37.997Z,22.40
2022-09-02T15:30:07.120Z,22.50
2022-09-02T15:32:35.478Z,22.40
2022-09-02T15:35:03.200Z,22.40
2022-09-02T15:37:30.607Z,22.40
2022-09-02T15:39:58.014Z,22.40
2022-09-02T15:42:25.457Z,22.40
2022-09-02T15:44:52.905Z,22.40
2022-09-02T15:47:21.201Z,22.40
2022-09-02T15:49:48.565Z,22.40
2022-09-02T15:52:15.928Z,22.40
2022-09-02T15:54:43.324Z,22.40
2022-09-02T15:57:11.603Z,22.40
2022-09-02T15:59:38.939Z,22.40
2022-09-02T16:02:06.422Z,22.40
2022-09-02T16:04:33.840Z,22.40
2022-09-02T16:07:01.209Z,22.40
2022-09-02T16:09:29.043Z,22.40
2022-09-02T16:11:56.417Z,22.40
2022-09-02T16:14:24.082Z,22.30
2022-09-02T16:16:55.947Z,22.20
2022-09-02T16:19:24.624Z,22.20
2022-09-02T16:21:52.165Z,22.10
2022-09-02T16:24:21.427Z,22.00
2022-09-02T16:26:49.437Z,22.00
2022-09-02T16:29:17.654Z,21.90
2022-09-02T16:32:01.776Z,21.80
2022-09-02T16:34:33.735Z,21.70
2022-09-02T16:37:01.091Z,21.70
2022-09-02T16:39:28.508Z,21.60
2022-09-02T16:41:55.922Z,21.60
2022-09-02T16:44:24.605Z,21.50
2022-09-02T16:46:52.324Z,21.60
2022-09-02T16:49:20.631Z,21.50
2022-09-02T16:51:49.288Z,21.40
2022-09-02T16:54:17.842Z,21.40
2022-09-02T16:56:48.839Z,21.30
2022-09-02T16:59:16.215Z,21.20
2022-09-02T17:01:43.639Z,21.10
2022-09-02T17:04:11.055Z,21.00
2022-09-02T17:06:42.166Z,20.90
2022-09-02T17:09:09.866Z,20.90
2022-09-02T17:11:39.679Z,20.80
2022-09-02T17:14:16.266Z,20.80
2022-09-02T17:16:49.105Z,20.70
2022-09-02T17:19:21.598Z,20.70
2022-09-02T17:21:53.503Z,20.60
2022-09-02T17:24:22.566Z,20.50
2022-09-02T17:26:51.612Z,20.50
2022-09-02T17:29:47.632Z,20.40
2022-09-02T17:32:08.134Z,20.40
2022-09-02T17:34:36.338Z,20.30
2022-09-02T17:37:04.527Z,20.20
2022-09-02T17:39:33.875Z,20.20
2022-09-02T17:42:05.146Z,20.20
2022-09-02T17:44:38.742Z,20.10
2022-09-02T17:47:08.483Z,20.00
2022-09-02T17:49:36.756Z,20.00
2022-09-02T17:52:07.930Z,19.90
2022-09-02T17:54:36.148Z,19.90
2022-09-02T17:57:25.571Z,19.80
2022-09-02T18:00:22.541Z,19.80
2022-09-02T18:03:25.565Z,19.70
2022-09-02T18:06:04.856Z,19.70
2022-09-02T18:08:43.780Z,19.60
2022-09-02T18:11:12.990Z,19.50
2022-09-02T18:14:11.575Z,19.50
2022-09-02T18:16:49.444Z,19.50
2022-09-02T18:19:30.968Z,19.50
2022-09-02T18:22:14.754Z,19.50
2022-09-02T18:25:08.419Z,19.50
2022-09-02T18:28:02.716Z,19.40
2022-09-02T18:30:49.036Z,19.40
2022-09-02T18:33:54.646Z,19.30
2022-09-02T18:36:43.567Z,19.20
2022-09-02T18:39:37.246Z,19.20
2022-09-02T18:42:23.572Z,19.10
2022-09-02T18:44:58.044Z,19.00
2022-09-02T18:47:26.796Z,19.00
2022-09-02T18:49:55.372Z,19.00
2022-09-02T18:52:26.369Z,18.90
2022-09-02T18:55:02.065Z,18.90
2022-09-02T18:57:33.614Z,18.80
2022-09-02T19:00:12.199Z,18.80
2022-09-02T19:02:49.169Z,18.80
2022-09-02T19:05:21.355Z,18.70
2022-09-02T19:08:07.530Z,18.70
2022-09-02T19:10:34.923Z,18.70
2022-09-02T19:13:02.418Z,18.60
2022-09-02T19:15:29.838Z,18.70
2022-09-02T19:17:59.823Z,18.60
2022-09-02T19:20:28.133Z,18.60
2022-09-02T19:22:57.286Z,18.60
2022-09-02T19:25:27.106Z,18.50
2022-09-02T19:27:54.828Z,18.50
2022-09-02T19:30:22.574Z,18.50
2022-09-02T19:32:52.732Z,18.50
2022-09-02T19:35:23.013Z,18.50
2022-09-02T19:37:52.271Z,18.50
2022-09-02T19:40:32.886Z,18.50
2022-09-02T19:43:03.323Z,18.50
2022-09-02T19:45:31.963Z,18.40
2022-09-02T19:48:08.404Z,18.40
2022-09-02T19:50:42.125Z,18.40
2022-09-02T19:53:10.908Z,18.40
2022-09-02T19:55:38.320Z,18.30
2022-09-02T19:58:05.661Z,18.30
2022-09-02T20:00:33.717Z,18.30
2022-09-02T20:03:01.236Z,18.20
2022-09-02T20:05:29.078Z,18.20
2022-09-02T20:07:56.508Z,18.10
2022-09-02T20:10:27.647Z,18.10
2022-09-02T20:12:55.855Z,18.10
2022-09-02T20:15:23.229Z,18.10
2022-09-02T20:17:50.640Z,18.10
2022-09-02T20:20:20.251Z,18.00
2022-09-02T20:22:48.102Z,18.00
2022-09-02T20:25:15.620Z,18.00
2022-09-02T20:28:01.922Z,17.90
2022-09-02T20:30:30.408Z,17.90
2022-09-02T20:32:59.210Z,17.80
2022-09-02T20:35:47.568Z,17.80
2022-09-02T20:38:37.323Z,17.80
2022-09-02T20:41:16.670Z,17.70
2022-09-02T20:44:10.951Z,17.60
2022-09-02T20:46:52.389Z,17.60
2022-09-02T20:49:58.499Z,17.60
2022-09-02T20:52:46.103Z,17.60
2022-09-02T20:55:23.234Z,17.50
2022-09-02T20:58:19.167Z,17.50
2022-09-02T21:00:53.414Z,17.50
2022-09-02T21:03:24.542Z,17.50
2022-09-02T21:05:58.214Z,17.50
2022-09-02T21:08:32.873Z,17.50
2022-09-02T21:11:00.752Z,17.50
2022-09-02T21:13:48.343Z,17.40
2022-09-02T21:16:25.946Z,17.40
2022-09-02T21:19:22.811Z,17.40
2022-09-02T21:22:05.745Z,17.40
2022-09-02T21:24:34.327Z,17.40
2022-09-02T21:27:09.899Z,17.30
2022-09-02T21:29:40.213Z,17.30
2022-09-02T21:32:20.083Z,17.20
2022-09-02T21:35:16.074Z,17.20
2022-09-02T21:37:44.611Z,17.20
2022-09-02T21:40:17.167Z,17.10
2022-09-02T21:42:54.626Z,17.10
2022-09-02T21:45:33.150Z,17.10
2022-09-02T21:48:18.590Z,17.10
2022-09-02T21:51:22.726Z,17.10
2022-09-02T21:53:53.778Z,17.10
2022-09-02T21:56:49.013Z,17.00
2022-09-02T21:59:34.833Z,17.00
2022-09-02T22:02:08.877Z,17.00
2022-09-02T22:04:42.215Z,16.90
2022-09-02T22:07:22.466Z,16.90
2022-09-02T22:09:55.722Z,16.90
2022-09-02T22:12:26.667Z,16.90
2022-09-02T22:15:04.063Z,16.80
2022-09-02T22:17:51.684Z,16.90
2022-09-02T22:20:22.199Z,16.80
2022-09-02T22:22:54.614Z,16.80
2022-09-02T22:25:22.924Z,16.80
2022-09-02T22:28:04.674Z,16.80
2022-09-02T22:30:32.973Z,16.70
2022-09-02T22:33:14.533Z,16.70
2022-09-02T22:35:51.622Z,16.70
2022-09-02T22:38:33.356Z,16.60
2022-09-02T22:41:19.383Z,16.60
2022-09-02T22:43:51.672Z,16.60
2022-09-02T22:46:43.242Z,16.60
2022-09-02T22:49:32.427Z,16.50
2022-09-02T22:52:18.333Z,16.50
2022-09-02T22:54:46.010Z,16.50
2022-09-02T22:57:27.811Z,16.50
2022-09-02T23:00:10.867Z,16.50
2022-09-02T23:02:58.946Z,16.50
2022-09-02T23:05:49.397Z,16.50
2022-09-02T23:08:20.525Z,16.50
2022-09-02T23:11:00.879Z,16.40
2022-09-02T23:13:46.286Z,16.40
2022-09-02T23:16:27.250Z,16.40
2022-09-02T23:19:25.369Z,16.30
2022-09-02T23:22:34.216Z,16.30
2022-09-02T23:25:20.004Z,16.30
2022-09-02T23:27:51.731Z,16.30
2022-09-02T23:30:19.084Z,16.20
2022-09-02T23:33:19.086Z,16.20
2022-09-02T23:35:54.886Z,16.20
2022-09-02T23:38:32.454Z,16.10
2022-09-02T23:41:10.485Z,16.10
2022-09-02T23:43:39.579Z,16.10
2022-09-02T23:46:16.248Z,16.10
2022-09-02T23:49:08.123Z,16.10
2022-09-02T23:51:53.747Z,16.10
2022-09-02T23:54:31.374Z,16.10
2022-09-02T23:57:12.091Z,16.10
2022-09-02T23:59:50.473Z,16.10
